Time;durP1;ratioP1;P1;durP2;ratioP2;P2;SDS_P1;SDS_P2;PMS_P1;PMS_P2;Temp;Humidity;BMP_temperature;BMP_pressure;BME280_temperature;BME280_humidity;BME280_pressure;Samples;Min_cycle;Max_cycle;Signal;HPM_P1;HPM_P2
2023/01/03 00:02:14;;;;;;;;;;;;;;;28.31;67.95;101248.56;5049872;28;71240;-37
2023/01/03 00:04:46;;;;;;;;;;;;;;;28.30;68.48;101268.47;5052295;28;66605;-39
2023/01/03 00:07:32;;;;;;;;;;;;;;;28.29;67.95;101266.81;5050629;28;70240;-39
2023/01/03 00:10:05;;;;;;;;;;;;;;;28.12;68.33;101268.09;5056466;28;66070;-38
2023/01/03 00:12:36;;;;;;;;;;;;;;;28.02;68.21;101266.53;5056160;28;69978;-38
2023/01/03 00:15:08;;;;;;;;;;;;;;;27.88;68.79;101266.59;5054432;28;66655;-39
2023/01/03 00:17:39;;;;;;;;;;;;;;;27.78;68.94;101277.66;5049761;28;69746;-39
2023/01/03 00:20:10;;;;;;;;;;;;;;;27.75;69.44;101291.50;5073436;27;64814;-37
2023/01/03 00:22:41;;;;;;;;;;;;;;;27.79;69.48;101303.59;5056682;28;69835;-38
2023/01/03 00:25:12;;;;;;;;;;;;;;;27.83;69.36;101289.59;5053625;28;65447;-38
2023/01/03 00:27:44;;;;;;;;;;;;;;;27.89;69.51;101297.91;5047212;28;70733;-37
2023/01/03 00:30:15;;;;;;;;;;;;;;;27.93;68.81;101308.13;5053778;28;66885;-38
2023/01/03 00:32:46;;;;;;;;;;;;;;;27.99;68.84;101309.25;5032295;28;69926;-38
2023/01/03 00:35:17;;;;;;;;;;;;;;;28.00;68.48;101311.75;5053907;28;66729;-37
2023/01/03 00:37:48;;;;;;;;;;;;;;;28.03;68.96;101314.06;5050934;28;69319;-40
2023/01/03 00:40:19;;;;;;;;;;;;;;;28.10;68.87;101316.00;5052646;28;66049;-39
2023/01/03 00:45:57;;;;;;;;;;;;;;;28.17;68.69;101328.53;5091812;27;44419;-40
2023/01/03 00:48:28;;;;;;;;;;;;;;;28.19;68.88;101325.63;5076917;27;69574;-44
2023/01/03 00:51:09;;;;;;;;;;;;;;;28.21;68.98;101328.97;5081962;27;66619;-37
2023/01/03 00:53:40;;;;;;;;;;;;;;;28.10;68.81;101321.41;5058975;27;69061;-40
2023/01/03 00:56:12;;;;;;;;;;;;;;;28.07;68.80;101328.00;5080191;27;67149;-40
2023/01/03 00:58:43;;;;;;;;;;;;;;;28.07;68.57;101325.31;5073459;27;70151;-39
2023/01/03 01:01:17;;;;;;;;;;;;;;;28.09;68.34;101330.53;5078988;27;66533;-39
2023/01/03 01:03:53;;;;;;;;;;;;;;;28.12;68.19;101340.94;5108309;27;69997;-39
2023/01/03 01:06:25;;;;;;;;;;;;;;;28.15;68.08;101337.84;5080872;27;66329;-38
2023/01/03 01:08:58;;;;;;;;;;;;;;;28.17;67.93;101338.50;5074265;27;70364;-39
2023/01/03 01:11:29;;;;;;;;;;;;;;;28.19;67.47;101339.13;5067295;27;66763;-38
2023/01/03 01:14:00;;;;;;;;;;;;;;;28.21;67.42;101339.78;5067060;27;71481;-39
2023/01/03 01:16:31;;;;;;;;;;;;;;;28.22;67.22;101341.44;5074695;27;66517;-39
2023/01/03 01:19:02;;;;;;;;;;;;;;;28.25;67.01;101346.44;5070998;27;69688;-39
2023/01/03 01:21:33;;;;;;;;;;;;;;;28.24;66.93;101347.47;5074305;27;66895;-39
2023/01/03 01:24:04;;;;;;;;;;;;;;;28.26;66.83;101353.53;5076231;27;70354;-39
2023/01/03 01:26:34;;;;;;;;;;;;;;;28.28;67.01;101348.78;5089075;27;66106;-39
2023/01/03 01:29:06;;;;;;;;;;;;;;;28.30;66.83;101349.41;5092510;27;69691;-40
2023/01/03 01:31:36;;;;;;;;;;;;;;;28.32;66.53;101352.75;5082726;27;66365;-39
2023/01/03 01:34:08;;;;;;;;;;;;;;;28.33;66.36;101353.59;5092170;27;70094;-39
2023/01/03 01:36:40;;;;;;;;;;;;;;;28.33;66.29;101357.09;5090110;27;67093;-39
2023/01/03 01:39:13;;;;;;;;;;;;;;;28.35;66.43;101352.38;5081736;27;70781;-38
2023/01/03 01:44:55;;;;;;;;;;;;;;;28.38;66.26;101354.69;5091247;27;70088;-38
2023/01/03 01:47:37;;;;;;;;;;;;;;;28.39;66.00;101360.91;5102517;27;66008;-39
2023/01/03 01:50:18;;;;;;;;;;;;;;;28.40;66.19;101355.31;5098683;27;70845;-38
2023/01/03 01:53:04;;;;;;;;;;;;;;;28.41;65.72;101348.91;5100715;27;66109;-39
2023/01/03 01:55:56;;;;;;;;;;;;;;;28.40;65.67;101341.84;5093311;27;70197;-44
2023/01/03 01:58:38;;;;;;;;;;;;;;;28.44;65.97;101353.09;5089592;27;67026;-38
2023/01/03 02:01:10;;;;;;;;;;;;;;;28.45;65.77;101352.94;5078875;27;70550;-39
2023/01/03 02:03:43;;;;;;;;;;;;;;;28.45;65.55;101339.44;5084232;27;67105;-39
2023/01/03 02:06:16;;;;;;;;;;;;;;;28.46;65.42;101343.78;5083627;27;69806;-38
2023/01/03 02:08:46;;;;;;;;;;;;;;;28.48;65.72;101349.00;5090921;27;65636;-38
2023/01/03 02:11:27;;;;;;;;;;;;;;;28.18;65.33;101292.44;5090873;27;70648;-39
2023/01/03 02:14:03;;;;;;;;;;;;;;;28.50;65.65;101345.09;5087819;27;66605;-40
2023/01/03 02:16:53;;;;;;;;;;;;;;;28.31;65.13;101318.72;5086841;27;70407;-38
2023/01/03 02:19:36;;;;;;;;;;;;;;;28.52;65.03;101347.56;5087288;27;66692;-39
2023/01/03 02:22:09;;;;;;;;;;;;;;;28.54;65.01;101345.53;5088761;27;69802;-38
2023/01/03 02:24:46;;;;;;;;;;;;;;;28.56;65.24;101348.88;5084868;27;66847;-39
2023/01/03 02:27:35;;;;;;;;;;;;;;;28.57;64.80;101349.72;5076953;27;70238;-39
2023/01/03 02:30:18;;;;;;;;;;;;;;;28.58;65.22;101352.19;5095825;27;66017;-39
2023/01/03 02:33:10;;;;;;;;;;;;;;;28.62;65.20;101352.66;5084601;27;69819;-39
2023/01/03 02:35:47;;;;;;;;;;;;;;;28.60;65.25;101342.06;5083590;27;66981;-40
2023/01/03 02:38:18;;;;;;;;;;;;;;;28.65;64.70;101347.72;5074043;27;69487;-39
2023/01/03 02:41:15;;;;;;;;;;;;;;;28.65;64.95;101342.31;5084087;27;65945;-40
2023/01/03 02:43:53;;;;;;;;;;;;;;;28.67;64.40;101332.16;5053119;27;70262;-39
2023/01/03 02:46:39;;;;;;;;;;;;;;;28.69;64.94;101338.19;5053622;27;64563;-39
2023/01/03 02:49:15;;;;;;;;;;;;;;;28.72;64.41;101342.34;5084235;27;69910;-38
2023/01/03 02:51:53;;;;;;;;;;;;;;;28.72;64.71;101329.72;5083651;27;66681;-39
2023/01/03 02:54:27;;;;;;;;;;;;;;;28.75;64.72;101339.25;5096786;27;70769;-39
2023/01/03 02:57:02;;;;;;;;;;;;;;;28.75;64.69;101328.47;5090680;27;66644;-39
2023/01/03 02:59:37;;;;;;;;;;;;;;;28.77;64.56;101334.50;5082336;27;70411;-42
2023/01/03 03:02:10;;;;;;;;;;;;;;;28.79;64.22;101332.47;5088304;27;66547;-38
2023/01/03 03:04:42;;;;;;;;;;;;;;;28.81;64.39;101330.41;5064779;28;69126;-39
2023/01/03 03:07:18;;;;;;;;;;;;;;;28.81;64.14;101327.72;5086695;27;66720;-38
2023/01/03 03:15:38;;;;;;;;;;;;;;;28.90;64.08;101331.09;5075306;27;70538;-38
2023/01/03 03:18:16;;;;;;;;;;;;;;;28.92;64.27;101324.47;5089016;27;64324;-38
2023/01/03 03:26:30;;;;;;;;;;;;;;;28.99;63.74;101326.38;5091025;27;70138;-38
2023/01/03 03:29:05;;;;;;;;;;;;;;;29.01;63.49;101319.75;5078783;27;66444;-39
2023/01/03 03:31:39;;;;;;;;;;;;;;;29.04;63.97;101307.75;5093415;27;68986;-39
2023/01/03 03:34:30;;;;;;;;;;;;;;;29.07;63.58;101308.19;5092128;27;66188;-39
2023/01/03 03:37:01;;;;;;;;;;;;;;;29.11;63.56;101305.91;5082317;27;70740;-39
2023/01/03 03:45:26;;;;;;;;;;;;;;;29.19;62.97;101289.53;5081595;27;66308;-39
2023/01/03 03:48:14;;;;;;;;;;;;;;;29.22;63.52;101294.53;5079073;27;70296;-39
2023/01/03 03:50:49;;;;;;;;;;;;;;;29.24;63.01;101281.69;5066443;27;66423;-39
2023/01/03 03:53:22;;;;;;;;;;;;;;;29.26;63.33;101282.31;5081337;27;70006;-39
2023/01/03 03:55:56;;;;;;;;;;;;;;;29.29;62.77;101268.41;5052795;28;65393;-40
2023/01/03 03:58:29;;;;;;;;;;;;;;;29.32;63.23;101272.59;5079843;27;68320;-39
2023/01/03 04:01:01;;;;;;;;;;;;;;;29.34;62.61;101260.53;5085898;27;66690;-40
2023/01/03 04:03:32;;;;;;;;;;;;;;;29.36;62.88;101253.06;5081270;27;69164;-39
2023/01/03 04:06:10;;;;;;;;;;;;;;;29.39;62.56;101255.38;5090785;27;66852;-40
2023/01/03 04:08:40;;;;;;;;;;;;;;;29.41;62.73;101252.44;5077517;27;69138;-38
2023/01/03 04:11:11;;;;;;;;;;;;;;;29.44;62.39;101243.09;5058419;28;65763;-39
2023/01/03 04:13:42;;;;;;;;;;;;;;;29.48;62.20;101236.28;5055136;28;69993;-39
2023/01/03 04:16:13;;;;;;;;;;;;;;;29.50;62.68;101234.19;5079803;27;67075;-40
2023/01/03 04:18:44;;;;;;;;;;;;;;;29.52;62.10;101234.81;5074581;27;70277;-40
2023/01/03 04:21:15;;;;;;;;;;;;;;;29.55;62.48;101229.00;5077499;27;66810;-38
2023/01/03 04:23:49;;;;;;;;;;;;;;;29.56;62.32;101226.13;5080702;27;70831;-39
2023/01/03 04:26:19;;;;;;;;;;;;;;;29.60;61.78;101223.81;5076614;27;66414;-39
2023/01/03 04:28:51;;;;;;;;;;;;;;;29.61;61.66;101214.66;5082908;27;69780;-40
2023/01/03 04:31:22;;;;;;;;;;;;;;;29.64;61.93;101211.59;5078542;27;66359;-41
2023/01/03 04:33:53;;;;;;;;;;;;;;;29.67;61.88;101204.94;5087001;27;70418;-39
2023/01/03 04:36:24;;;;;;;;;;;;;;;29.70;61.51;101212.63;5080671;27;66591;-39
2023/01/03 04:38:55;;;;;;;;;;;;;;;29.71;61.74;101209.75;5084694;27;70064;-38
2023/01/03 04:41:25;;;;;;;;;;;;;;;29.74;61.85;101212.03;5082492;27;65817;-39
2023/01/03 04:44:03;;;;;;;;;;;;;;;29.77;61.09;101197.28;5082544;27;70266;-38
2023/01/03 04:46:36;;;;;;;;;;;;;;;29.79;61.47;101187.94;5081083;27;66702;-38
2023/01/03 04:49:08;;;;;;;;;;;;;;;29.81;61.48;101180.44;5087174;27;70418;-39
2023/01/03 04:51:38;;;;;;;;;;;;;;;29.83;60.74;101172.94;5083710;27;66963;-39
2023/01/03 04:54:09;;;;;;;;;;;;;;;29.87;60.80;101167.97;5077022;27;69361;-40
2023/01/03 04:56:40;;;;;;;;;;;;;;;29.90;60.73;101166.72;5075453;27;67271;-39
2023/01/03 04:59:10;;;;;;;;;;;;;;;29.92;61.17;101167.34;5079018;27;69702;-39
2023/01/03 05:01:50;;;;;;;;;;;;;;;29.91;60.89;101163.81;5076336;27;65231;-38
2023/01/03 05:04:22;;;;;;;;;;;;;;;29.92;61.10;101160.06;5077001;27;70262;-39
2023/01/03 05:06:53;;;;;;;;;;;;;;;29.93;61.10;101163.59;5076359;27;66793;-39
2023/01/03 05:09:26;;;;;;;;;;;;;;;29.96;60.68;101155.06;5094142;27;70059;-40
2023/01/03 05:11:56;;;;;;;;;;;;;;;29.97;61.07;101145.91;5061377;28;66112;-39
2023/01/03 05:14:27;;;;;;;;;;;;;;;29.97;60.62;101145.91;5090780;27;70363;-38
2023/01/03 05:16:58;;;;;;;;;;;;;;;29.99;61.07;101143.84;5088501;27;65605;-39
2023/01/03 05:19:29;;;;;;;;;;;;;;;30.00;60.54;101134.66;5085131;27;69796;-38
2023/01/03 05:27:37;;;;;;;;;;;;;;;30.03;61.06;101118.88;5086079;27;67112;-39
2023/01/03 05:30:08;;;;;;;;;;;;;;;30.04;60.87;101104.31;5092815;27;69734;-40
2023/01/03 05:32:38;;;;;;;;;;;;;;;30.06;61.13;101098.66;5090978;27;66899;-39
2023/01/03 05:35:09;;;;;;;;;;;;;;;30.08;60.87;101102.00;5082539;27;70707;-39
2023/01/03 05:37:40;;;;;;;;;;;;;;;30.09;60.87;101087.44;5083707;27;66025;-39
2023/01/03 05:40:11;;;;;;;;;;;;;;;30.10;60.84;101083.69;5084598;27;70701;-40
2023/01/03 05:42:41;;;;;;;;;;;;;;;30.13;60.70;101074.31;5084683;27;67296;-39
2023/01/03 05:45:12;;;;;;;;;;;;;;;30.13;60.71;101067.03;5085417;27;70675;-39
2023/01/03 05:47:43;;;;;;;;;;;;;;;30.16;60.41;101068.50;5087235;27;66587;-39
2023/01/03 05:50:13;;;;;;;;;;;;;;;30.15;60.65;101056.84;5086875;27;70255;-39
2023/01/03 05:52:44;;;;;;;;;;;;;;;30.18;60.89;101056.41;5088589;27;65695;-37
2023/01/03 05:55:16;;;;;;;;;;;;;;;30.20;60.73;101048.94;5071576;27;69694;-39
2023/01/03 05:57:46;;;;;;;;;;;;;;;30.21;60.46;101042.47;5088863;27;66000;-38
2023/01/03 06:00:17;;;;;;;;;;;;;;;30.23;60.43;101036.88;5082916;27;69849;-39
2023/01/03 06:02:48;;;;;;;;;;;;;;;30.25;60.12;101029.38;5081151;27;66634;-38
2023/01/03 06:05:19;;;;;;;;;;;;;;;30.26;60.10;101026.47;5084926;27;69576;-38
2023/01/03 06:07:49;;;;;;;;;;;;;;;30.30;60.49;101020.63;5080732;27;66573;-38
2023/01/03 06:10:20;;;;;;;;;;;;;;;30.32;60.37;101021.25;5083669;27;70830;-39
2023/01/03 06:12:51;;;;;;;;;;;;;;;30.32;60.14;101018.53;5082263;27;65506;-39
2023/01/03 06:15:22;;;;;;;;;;;;;;;30.35;60.25;101007.28;5080821;27;70302;-38
2023/01/03 06:18:01;;;;;;;;;;;;;;;30.38;60.40;101006.84;5078049;27;67302;-39
2023/01/03 06:20:31;;;;;;;;;;;;;;;30.22;59.83;100978.38;5084767;27;69979;-38
2023/01/03 06:23:02;;;;;;;;;;;;;;;30.40;60.11;100996.66;5083415;27;67080;-39
2023/01/03 06:25:33;;;;;;;;;;;;;;;30.42;60.04;100997.25;5068840;27;69695;-38
2023/01/03 06:28:05;;;;;;;;;;;;;;;30.44;60.03;100989.75;5082966;27;65259;-41
2023/01/03 06:30:35;;;;;;;;;;;;;;;30.46;59.98;100987.66;5086868;27;70380;-40
2023/01/03 06:33:06;;;;;;;;;;;;;;;30.50;60.23;100988.88;5089643;27;66653;-39
2023/01/03 06:35:38;;;;;;;;;;;;;;;30.51;60.04;100985.16;5062360;28;69787;-39
2023/01/03 06:38:09;;;;;;;;;;;;;;;30.53;59.74;100977.63;5082542;27;65684;-40
2023/01/03 06:40:46;;;;;;;;;;;;;;;30.55;59.70;100959.28;5075775;27;69083;-40
2023/01/03 06:43:17;;;;;;;;;;;;;;;30.58;59.59;100956.16;5084337;27;67012;-39
2023/01/03 06:54:20;;;;;;;;;;;;;;;30.66;59.10;100941.53;5085453;27;66497;-41
2023/01/03 06:56:52;;;;;;;;;;;;;;;30.67;59.18;100930.50;5082236;27;70118;-39
2023/01/03 06:59:22;;;;;;;;;;;;;;;30.69;59.37;100935.69;5078482;27;66685;-39
2023/01/03 07:01:54;;;;;;;;;;;;;;;30.71;59.34;100931.72;5076060;27;71069;-39
2023/01/03 07:04:25;;;;;;;;;;;;;;;30.73;59.10;100924.22;5079958;27;65655;-40
2023/01/03 07:06:57;;;;;;;;;;;;;;;30.76;59.23;100916.66;5082959;27;69339;-39
2023/01/03 07:09:28;;;;;;;;;;;;;;;30.78;59.03;100910.00;5081250;27;65998;-39
2023/01/03 07:13:57;;;;;;;;;;;;;;;30.81;58.79;100906.06;5082389;27;69506;-39
2023/01/03 07:14:50;;;;;;;;;;;;;;;30.84;58.99;100901.03;5079918;27;66110;-38
2023/01/03 07:17:20;;;;;;;;;;;;;;;30.86;58.97;100893.50;5073320;27;70473;-38
2023/01/03 07:19:51;;;;;;;;;;;;;;;30.89;58.56;100889.53;5080356;27;66107;-39
2023/01/03 07:22:22;;;;;;;;;;;;;;;30.89;58.50;100889.53;5080212;27;70758;-39
2023/01/03 07:24:53;;;;;;;;;;;;;;;30.94;58.61;100893.25;5075661;27;65472;-39
2023/01/03 07:27:23;;;;;;;;;;;;;;;30.98;58.15;100876.53;5078291;27;69892;-39
2023/01/03 07:29:55;;;;;;;;;;;;;;;31.00;58.13;100872.56;5088587;27;65313;-39
2023/01/03 07:32:25;;;;;;;;;;;;;;;31.05;57.88;100866.50;5075401;27;70365;-39
2023/01/03 07:34:56;;;;;;;;;;;;;;;31.08;58.03;100863.34;5078605;27;66663;-40
2023/01/03 07:37:27;;;;;;;;;;;;;;;31.09;58.22;100852.28;5078370;27;70356;-40
2023/01/03 07:39:58;;;;;;;;;;;;;;;31.13;57.83;100855.38;5060766;28;66051;-39
2023/01/03 07:45:18;;;;;;;;;;;;;;;31.20;57.49;100844.47;5076440;27;66599;-40
2023/01/03 07:47:48;;;;;;;;;;;;;;;31.23;57.96;100844.88;5079509;27;69711;-39
2023/01/03 07:50:19;;;;;;;;;;;;;;;31.26;57.55;100848.97;5078018;27;66976;-39
2023/01/03 07:52:50;;;;;;;;;;;;;;;31.28;57.34;100845.00;5079262;27;70401;-39
2023/01/03 07:55:20;;;;;;;;;;;;;;;31.31;57.60;100854.56;5058017;27;66987;-39
2023/01/03 07:57:51;;;;;;;;;;;;;;;31.20;57.22;100814.66;5086150;27;69848;-39
2023/01/03 08:00:22;;;;;;;;;;;;;;;31.37;56.98;100838.28;5080381;27;66631;-38
2023/01/03 08:02:53;;;;;;;;;;;;;;;31.39;57.23;100835.34;5078833;27;69953;-38
2023/01/03 08:05:25;;;;;;;;;;;;;;;31.43;57.12;100831.13;5065843;27;66420;-39
2023/01/03 08:07:55;;;;;;;;;;;;;;;31.46;57.16;100838.81;5082879;27;69164;-39
2023/01/03 08:13:16;;;;;;;;;;;;;;;31.52;56.97;100832.47;5085176;27;70459;-40
2023/01/03 08:15:50;;;;;;;;;;;;;;;31.55;57.06;100826.59;5079087;27;67150;-39
2023/01/03 08:18:23;;;;;;;;;;;;;;;31.58;56.45;100828.84;5078430;27;70305;-39
2023/01/03 08:20:56;;;;;;;;;;;;;;;31.60;56.69;100824.03;5063428;27;65184;-39
2023/01/03 08:23:26;;;;;;;;;;;;;;;31.62;56.49;100821.09;5079001;27;69650;-39
2023/01/03 08:26:04;;;;;;;;;;;;;;;31.65;56.21;100822.53;5078437;27;66014;-38
2023/01/03 08:28:36;;;;;;;;;;;;;;;31.67;56.29;100817.72;5082185;27;69987;-39
2023/01/03 08:31:11;;;;;;;;;;;;;;;31.70;56.60;100819.97;5076143;27;66557;-39
2023/01/03 08:33:54;;;;;;;;;;;;;;;31.74;56.24;100826.59;5081317;27;70553;-39
2023/01/03 08:36:27;;;;;;;;;;;;;;;31.64;56.18;100805.44;5083320;27;65158;-40
2023/01/03 08:39:03;;;;;;;;;;;;;;;31.77;56.23;100826.16;5077013;27;70805;-40
2023/01/03 08:41:39;;;;;;;;;;;;;;;31.79;56.27;100824.88;5063556;27;64889;-41
2023/01/03 08:44:10;;;;;;;;;;;;;;;31.80;56.24;100828.41;5070805;27;69739;-39
2023/01/03 08:46:44;;;;;;;;;;;;;;;31.83;56.23;100836.91;5084999;27;66298;-40
2023/01/03 08:49:16;;;;;;;;;;;;;;;31.85;55.56;100823.13;5085535;27;70258;-41
2023/01/03 08:51:46;;;;;;;;;;;;;;;31.87;55.90;100831.84;5084118;27;65195;-41
2023/01/03 08:54:18;;;;;;;;;;;;;;;31.88;56.00;100832.69;5045168;28;70053;-40
2023/01/03 08:56:48;;;;;;;;;;;;;;;31.89;56.01;100821.59;5078359;27;65615;-39
2023/01/03 08:59:20;;;;;;;;;;;;;;;31.91;55.76;100830.38;5081743;27;70144;-38
2023/01/03 09:01:50;;;;;;;;;;;;;;;31.92;56.12;100829.31;5057734;27;65592;-40
2023/01/03 09:04:22;;;;;;;;;;;;;;;31.93;55.75;100828.25;5083144;27;69176;-40
2023/01/03 09:06:52;;;;;;;;;;;;;;;31.95;55.71;100833.44;5084103;27;65888;-40
2023/01/03 09:09:23;;;;;;;;;;;;;;;31.96;55.54;100830.53;5086989;27;70383;-41
2023/01/03 09:11:54;;;;;;;;;;;;;;;31.98;55.93;100832.97;5081723;27;66663;-40
2023/01/03 09:14:24;;;;;;;;;;;;;;;31.98;55.43;100831.13;5081289;27;70254;-41
2023/01/03 09:16:55;;;;;;;;;;;;;;;31.97;55.49;100832.16;5079629;27;65915;-40
2023/01/03 09:19:27;;;;;;;;;;;;;;;31.98;55.54;100839.25;5080674;27;70770;-39
2023/01/03 09:21:57;;;;;;;;;;;;;;;31.81;55.03;100806.44;5079567;27;65514;-39
2023/01/03 09:24:28;;;;;;;;;;;;;;;31.97;55.44;100832.16;5083468;27;70138;-41
2023/01/03 09:26:59;;;;;;;;;;;;;;;31.96;55.56;100833.22;5062804;27;67831;-42
2023/01/03 09:29:30;;;;;;;;;;;;;;;31.96;55.22;100835.94;5081099;27;70459;-40
2023/01/03 09:32:02;;;;;;;;;;;;;;;31.95;55.57;100839.69;5083031;27;66876;-39
2023/01/03 09:34:33;;;;;;;;;;;;;;;31.95;55.49;100838.88;5084878;27;70375;-39
2023/01/03 09:37:03;;;;;;;;;;;;;;;31.95;55.63;100855.97;5081608;27;66620;-38
2023/01/03 09:39:34;;;;;;;;;;;;;;;31.92;55.40;100837.44;5083742;27;70785;-42
2023/01/03 09:44:54;;;;;;;;;;;;;;;31.94;55.42;100843.47;5084695;27;70541;-40
2023/01/03 09:47:25;;;;;;;;;;;;;;;31.97;55.50;100836.75;5083474;27;65663;-40
2023/01/03 09:49:56;;;;;;;;;;;;;;;31.97;55.84;100843.00;5081439;27;70035;-40
2023/01/03 10:04:38;;;;;;;;;;;;;;;31.95;55.87;100866.00;5067911;27;66687;-40
2023/01/03 10:07:27;;;;;;;;;;;;;;;31.93;56.40;100877.09;5082786;27;69672;-40
2023/01/03 10:10:10;;;;;;;;;;;;;;;31.91;56.16;100876.50;5091474;27;66740;-40
2023/01/03 10:12:44;;;;;;;;;;;;;;;31.90;56.21;100874.81;5077067;27;67980;-39
2023/01/03 10:15:23;;;;;;;;;;;;;;;31.94;56.28;100892.31;5082190;27;65585;-39
2023/01/03 10:18:03;;;;;;;;;;;;;;;31.94;56.12;100892.31;5080430;27;70605;-42
2023/01/03 10:20:53;;;;;;;;;;;;;;;31.93;56.23;100896.09;5087995;27;65381;-40
2023/01/03 10:23:24;;;;;;;;;;;;;;;31.90;56.55;100901.94;5084183;27;70360;-38
2023/01/03 10:25:55;;;;;;;;;;;;;;;31.88;56.37;100904.03;5095708;27;66272;-42
2023/01/03 10:28:39;;;;;;;;;;;;;;;31.89;56.55;100916.53;5081387;27;69149;-40
2023/01/03 10:31:13;;;;;;;;;;;;;;;31.86;56.03;100917.00;5086034;27;66474;-43
2023/01/03 10:33:45;;;;;;;;;;;;;;;31.86;56.07;100911.56;5083668;27;69375;-41
2023/01/03 10:36:17;;;;;;;;;;;;;;;31.85;56.15;100912.63;5067136;27;66958;-40
2023/01/03 10:38:48;;;;;;;;;;;;;;;31.84;56.16;100924.53;5082136;27;69964;-42
2023/01/03 10:41:21;;;;;;;;;;;;;;;31.86;55.85;100930.56;5086509;27;65556;-39
2023/01/03 10:44:00;;;;;;;;;;;;;;;31.82;55.94;100938.31;5083861;27;70087;-39
2023/01/03 10:46:31;;;;;;;;;;;;;;;31.83;55.86;100934.56;5086470;27;65406;-41
2023/01/03 10:49:14;;;;;;;;;;;;;;;31.82;56.02;100943.75;5085586;27;70310;-42
2023/01/03 10:52:11;;;;;;;;;;;;;;;31.79;56.08;100943.38;5084628;27;67158;-42
2023/01/03 10:54:43;;;;;;;;;;;;;;;31.77;56.44;100950.91;5087804;27;69786;-43
2023/01/03 10:57:52;;;;;;;;;;;;;;;31.75;56.59;100956.53;5087663;27;65193;-40
2023/01/03 11:00:25;;;;;;;;;;;;;;;31.75;56.63;100963.84;5004689;28;70211;-43
2023/01/03 11:03:01;;;;;;;;;;;;;;;31.77;57.05;100968.00;4996855;28;66260;-40
2023/01/03 11:05:33;;;;;;;;;;;;;;;31.78;57.30;100974.25;5046934;27;70755;-39
2023/01/03 11:08:05;;;;;;;;;;;;;;;31.76;57.37;100969.06;5089062;27;65959;-37
2023/01/03 11:10:47;;;;;;;;;;;;;;;31.76;57.83;100970.94;5084977;27;69404;-39
2023/01/03 11:13:24;;;;;;;;;;;;;;;31.74;57.69;100978.47;5085042;27;65331;-39
2023/01/03 11:15:56;;;;;;;;;;;;;;;31.76;58.44;100981.78;5076304;27;70375;-37
2023/01/03 11:18:29;;;;;;;;;;;;;;;31.75;58.94;100985.56;5089150;27;66168;-38
2023/01/03 11:21:22;;;;;;;;;;;;;;;31.73;59.44;100983.09;5074028;27;70117;-38
2023/01/03 11:23:53;;;;;;;;;;;;;;;31.73;60.54;100998.50;5086798;27;66174;-36
2023/01/03 11:26:36;;;;;;;;;;;;;;;31.69;61.19;101002.72;5086055;27;69005;-38
2023/01/03 11:29:16;;;;;;;;;;;;;;;31.80;60.89;101005.53;5080865;27;66121;-39
2023/01/03 11:32:02;;;;;;;;;;;;;;;31.67;61.95;101013.78;5084085;27;69209;-40
2023/01/03 11:34:51;;;;;;;;;;;;;;;31.52;62.24;101014.13;5083488;27;66147;-38
2023/01/03 11:37:42;;;;;;;;;;;;;;;31.54;62.28;101017.47;5085246;27;70526;-40
2023/01/03 11:40:38;;;;;;;;;;;;;;;31.54;61.77;101017.47;5084303;27;66652;-38
2023/01/03 11:43:15;;;;;;;;;;;;;;;31.58;61.50;101029.50;5077769;27;69388;-40
2023/01/03 11:46:05;;;;;;;;;;;;;;;31.58;61.69;101029.50;5085851;27;65511;-40
2023/01/03 11:48:45;;;;;;;;;;;;;;;31.60;61.20;101027.41;5081046;27;69797;-38
2023/01/03 11:51:25;;;;;;;;;;;;;;;31.60;61.36;101040.16;5070672;27;67234;-38
2023/01/03 11:54:06;;;;;;;;;;;;;;;31.59;62.01;101047.47;5069996;27;69836;-41
2023/01/03 11:56:39;;;;;;;;;;;;;;;31.57;62.80;101049.56;5084424;27;66039;-40
2023/01/03 11:59:10;;;;;;;;;;;;;;;31.56;63.11;101053.28;5084572;27;69782;-41
2023/01/03 12:01:47;;;;;;;;;;;;;;;31.53;63.44;101047.50;5093773;27;66831;-39
2023/01/03 12:04:30;;;;;;;;;;;;;;;31.54;63.46;101074.41;5076395;27;70152;-42
2023/01/03 12:07:07;;;;;;;;;;;;;;;31.65;62.78;101085.56;5081839;27;66079;-38
2023/01/03 12:10:04;;;;;;;;;;;;;;;31.53;63.42;101086.28;5085152;27;69784;-38
2023/01/03 12:12:41;;;;;;;;;;;;;;;31.43;63.81;101091.38;5080948;27;66897;-39
2023/01/03 12:15:25;;;;;;;;;;;;;;;31.38;64.17;101093.91;5066523;27;69874;-42
2023/01/03 12:17:55;;;;;;;;;;;;;;;31.30;64.26;101110.41;5085800;27;66317;-38
2023/01/03 12:20:36;;;;;;;;;;;;;;;31.29;65.08;101108.75;5085983;27;70543;-39
2023/01/03 12:23:24;;;;;;;;;;;;;;;31.26;65.89;101114.56;5078057;27;65910;-42
2023/01/03 12:25:58;;;;;;;;;;;;;;;31.23;65.63;101123.13;5081524;27;69935;-39
2023/01/03 12:28:34;;;;;;;;;;;;;;;31.22;65.49;101118.78;5080972;27;66158;-39
2023/01/03 12:31:13;;;;;;;;;;;;;;;31.21;65.72;101130.69;5081368;27;70565;-41
2023/01/03 12:33:52;;;;;;;;;;;;;;;31.16;65.96;101134.03;5077392;27;66189;-42
2023/01/03 12:36:37;;;;;;;;;;;;;;;31.15;66.65;101133.19;5073067;27;70280;-41
2023/01/03 12:39:23;;;;;;;;;;;;;;;31.13;66.30;101140.72;5074854;27;66105;-42
2023/01/03 12:42:04;;;;;;;;;;;;;;;31.11;66.88;101145.50;5081182;27;69954;-42
2023/01/03 12:44:40;;;;;;;;;;;;;;;31.14;66.84;101157.78;5077640;27;65759;-44
2023/01/03 12:47:34;;;;;;;;;;;;;;;31.13;66.85;101156.13;5050673;27;70060;-41
2023/01/03 12:50:05;;;;;;;;;;;;;;;31.11;67.57;101169.06;5069379;27;65582;-39
2023/01/03 12:52:37;;;;;;;;;;;;;;;31.15;66.79;101160.31;5073039;27;69962;-43
2023/01/03 12:55:20;;;;;;;;;;;;;;;31.12;67.05;101174.28;5058868;27;65475;-43
2023/01/03 12:57:58;;;;;;;;;;;;;;;31.13;67.31;101167.81;5047778;28;69170;-42
2023/01/03 13:00:32;;;;;;;;;;;;;;;31.12;67.62;101171.56;5052119;27;67144;-44
2023/01/03 13:03:13;;;;;;;;;;;;;;;31.11;67.38;101175.31;5075068;27;70283;-44
2023/01/03 13:05:53;;;;;;;;;;;;;;;31.11;67.59;101185.31;5082293;27;65509;-41
2023/01/03 13:08:23;;;;;;;;;;;;;;;31.08;67.94;101180.34;5082426;27;70524;-41
2023/01/03 13:10:56;;;;;;;;;;;;;;;31.08;68.09;101186.56;5079986;27;67065;-42
2023/01/03 13:13:27;;;;;;;;;;;;;;;31.07;68.65;101194.94;5077287;27;70270;-40
2023/01/03 13:15:58;;;;;;;;;;;;;;;31.07;68.13;101190.34;5078494;27;66788;-43
2023/01/03 13:18:30;;;;;;;;;;;;;;;31.06;68.50;101191.38;5076801;27;69881;-41
2023/01/03 13:21:21;;;;;;;;;;;;;;;31.10;68.63;101191.78;5071348;27;67051;-43
2023/01/03 13:23:59;;;;;;;;;;;;;;;31.06;68.74;101204.91;5068690;27;69631;-43
2023/01/03 13:26:32;;;;;;;;;;;;;;;31.06;68.95;101199.50;5058809;27;66419;-40
2023/01/03 13:29:21;;;;;;;;;;;;;;;31.04;68.87;101201.63;5081092;27;70195;-39
2023/01/03 13:32:02;;;;;;;;;;;;;;;31.01;69.49;101202.03;5063248;27;65491;-42
2023/01/03 13:34:33;;;;;;;;;;;;;;;31.02;69.14;101200.16;5083367;27;69915;-40
2023/01/03 13:37:07;;;;;;;;;;;;;;;31.01;68.81;101212.88;5070138;27;65859;-43
2023/01/03 13:39:44;;;;;;;;;;;;;;;31.01;69.35;101210.16;5078652;27;70367;-42
2023/01/03 13:42:21;;;;;;;;;;;;;;;30.99;69.52;101214.97;5078564;27;66328;-39
2023/01/03 13:44:54;;;;;;;;;;;;;;;31.00;69.93;101215.78;5046273;28;69249;-42
2023/01/03 13:47:49;;;;;;;;;;;;;;;31.02;69.61;101217.25;5061207;28;66151;-41
2023/01/03 13:50:36;;;;;;;;;;;;;;;31.05;69.53;101222.22;5061059;28;70124;-43
2023/01/03 13:53:18;;;;;;;;;;;;;;;31.02;69.74;101233.50;5057543;27;66193;-43
2023/01/03 13:56:00;;;;;;;;;;;;;;;30.87;65.97;101233.75;5055587;28;70186;-42
2023/01/03 13:58:48;;;;;;;;;;;;;;;30.63;62.48;101237.91;5057280;28;67093;-43
2023/01/03 14:01:37;;;;;;;;;;;;;;;30.44;60.64;101233.34;5059846;28;69974;-44
2023/01/03 14:04:28;;;;;;;;;;;;;;;30.26;59.53;101232.13;5058325;28;66419;-43
2023/01/03 14:07:10;;;;;;;;;;;;;;;30.13;58.66;101233.94;5054280;28;70029;-41
2023/01/03 14:10:02;;;;;;;;;;;;;;;30.03;57.41;101237.03;5058103;28;66723;-42
2023/01/03 14:12:43;;;;;;;;;;;;;;;29.91;56.22;101244.94;5055807;27;70295;-42
2023/01/03 14:15:25;;;;;;;;;;;;;;;29.81;54.31;101245.34;5065578;28;67757;-43